| time (UTC) | temp F | wind direction | speed knots | gust knots | rain 1hr in | rain 24hr in | rain mn in | humidity % | barometer mb |
| 20260905151305 | 77 | 0 | 5.2 | 8.7 | 0.00 | 0.08 | 0.08 | 67 | 1009.8 |
| 20260905150805 | 78 | 356 | 5.2 | 7.8 | 0.00 | 0.08 | 0.08 | 67 | 1009.7 |
| 20260905150305 | 78 | 4 | 5.2 | 7.8 | 0.00 | 0.08 | 0.08 | 69 | 1009.8 |
| 20260905145307 | 78 | 22 | 6.1 | 8.7 | 0.00 | 0.08 | 0.08 | 68 | 1009.8 |
| 20260905143806 | 78 | 11 | 4.3 | 6.1 | 0.00 | 0.08 | 0.08 | 67 | 1009.6 |
| 20260905143306 | 77 | 31 | 4.3 | 8.7 | 0.00 | 0.08 | 0.08 | 68 | 1009.5 |
| 20260905142805 | 77 | 17 | 6.1 | 10.4 | 0.00 | 0.08 | 0.08 | 67 | 1009.4 |
| 20260905141805 | 77 | 18 | 5.2 | 8.7 | 0.00 | 0.08 | 0.08 | 69 | 1009.5 |
| 20260905140805 | 77 | 19 | 7.8 | 10.4 | 0.00 | 0.08 | 0.08 | 69 | 1009.4 |
| 20260905140306 | 76 | 9 | 6.1 | 10.4 | 0.00 | 0.08 | 0.08 | 70 | 1009.4 |
| 20260905135805 | 75 | 5 | 6.1 | 13.0 | 0.00 | 0.08 | 0.08 | 72 | 1009.4 |
| 20260905135307 | 75 | 22 | 7.0 | 11.3 | 0.00 | 0.08 | 0.08 | 73 | 1009.3 |
| 20260905133305 | 74 | 25 | 7.8 | 12.2 | 0.00 | 0.08 | 0.08 | 74 | 1009.4 |
| 20260905132805 | 74 | 22 | 8.7 | 12.2 | 0.00 | 0.08 | 0.08 | 74 | 1009.4 |
| 20260905132306 | 74 | 26 | 8.7 | 11.3 | 0.00 | 0.08 | 0.08 | 74 | 1009.4 |
| 20260905131305 | 74 | 25 | 8.7 | 12.2 | 0.00 | 0.08 | 0.08 | 74 | 1009.5 |
| 20260905125805 | 74 | 33 | 8.7 | 13.0 | 0.00 | 0.08 | 0.08 | 74 | 1009.3 |
| 20260905125306 | 74 | 20 | 8.7 | 13.0 | 0.00 | 0.08 | 0.08 | 74 | 1009.4 |
| 20260905124305 | 74 | 17 | 10.4 | 13.9 | 0.00 | 0.08 | 0.08 | 74 | 1009.4 |
| 20260905122807 | 74 | 14 | 8.7 | 13.0 | 0.00 | 0.08 | 0.08 | 75 | 1009.7 |
| 20260905121806 | 74 | 1 | 9.6 | 13.0 | 0.00 | 0.08 | 0.08 | 74 | 1009.6 |
| 20260905121305 | 75 | 9 | 11.3 | 15.6 | 0.00 | 0.08 | 0.08 | 74 | 1009.7 |
| 20260905120306 | 75 | 0 | 8.7 | 12.2 | 0.00 | 0.08 | 0.08 | 74 | 1009.6 |
| 20260905115306 | 75 | 3 | 8.7 | 13.9 | 0.00 | 0.08 | 0.08 | 74 | 1009.4 |
| 20260905114806 | 75 | 358 | 9.6 | 13.0 | 0.00 | 0.08 | 0.08 | 72 | 1009.5 |
| 20260905113805 | 75 | 22 | 8.7 | 13.9 | 0.00 | 0.08 | 0.08 | 71 | 1009.4 |
| 20260905113305 | 75 | 21 | 7.8 | 12.2 | 0.00 | 0.08 | 0.08 | 72 | 1009.2 |
| 20260905112306 | 75 | 359 | 8.7 | 13.9 | 0.00 | 0.08 | 0.08 | 72 | 1009.2 |
| 20260905111305 | 75 | 11 | 10.4 | 13.0 | 0.00 | 0.08 | 0.08 | 74 | 1009.2 |
| 20260905110805 | 75 | 352 | 11.3 | 13.0 | 0.00 | 0.08 | 0.08 | 75 | 1009.2 |
| 20260905110305 | 75 | 354 | 9.6 | 13.0 | 0.00 | 0.08 | 0.08 | 74 | 1009.1 |
| 20260905105306 | 75 | 354 | 7.8 | 11.3 | 0.00 | 0.08 | 0.08 | 74 | 1008.9 |
| 20260905104805 | 75 | 356 | 7.8 | 11.3 | 0.00 | 0.08 | 0.08 | 74 | 1008.9 |
| 20260905103306 | 75 | 17 | 8.7 | 14.8 | 0.00 | 0.08 | 0.08 | 74 | 1008.7 |
| 20260905102306 | 75 | 15 | 7.8 | 13.9 | 0.00 | 0.08 | 0.08 | 74 | 1008.6 |
| 20260905100805 | 75 | 3 | 7.0 | 10.4 | 0.00 | 0.08 | 0.08 | 76 | 1008.5 |
| 20260905100305 | 75 | 6 | 6.1 | 10.4 | 0.00 | 0.08 | 0.08 | 75 | 1008.5 |
| 20260905093805 | 76 | 350 | 8.7 | 10.4 | 0.00 | 0.08 | 0.08 | 76 | 1008.6 |
| 20260905093305 | 76 | 346 | 7.8 | 10.4 | 0.00 | 0.08 | 0.08 | 77 | 1008.5 |
| 20260905092306 | 76 | 21 | 6.1 | 10.4 | 0.00 | 0.08 | 0.08 | 75 | 1008.4 |
| 20260905091805 | 76 | 20 | 6.1 | 10.4 | 0.00 | 0.08 | 0.08 | 75 | 1008.4 |
| 20260905090805 | 76 | 17 | 6.1 | 10.4 | 0.00 | 0.08 | 0.08 | 76 | 1008.5 |
| 20260905090305 | 76 | 23 | 6.1 | 10.4 | 0.00 | 0.08 | 0.08 | 76 | 1008.6 |
| 20260905085806 | 76 | 27 | 6.1 | 10.4 | 0.00 | 0.08 | 0.08 | 77 | 1008.5 |
| 20260905085306 | 76 | 17 | 7.0 | 10.4 | 0.00 | 0.08 | 0.08 | 76 | 1008.5 |
| 20260905083306 | 76 | 356 | 6.1 | 10.4 | 0.00 | 0.08 | 0.08 | 76 | 1008.4 |
| 20260905082307 | 76 | 6 | 7.8 | 12.2 | 0.00 | 0.08 | 0.08 | 77 | 1008.4 |
| 20260905080805 | 76 | 354 | 8.7 | 10.4 | 0.00 | 0.08 | 0.08 | 76 | 1008.5 |
| 20260905073806 | 76 | 338 | 2.6 | 6.1 | 0.00 | 0.08 | 0.08 | 79 | 1008.7 |
| 20260905072306 | 76 | 352 | 1.7 | 5.2 | 0.00 | 0.08 | 0.08 | 77 | 1008.8 |
| 20260905071806 | 76 | 355 | 2.6 | 5.2 | 0.00 | 0.08 | 0.08 | 76 | 1008.8 |
| 20260905071305 | 76 | 347 | 4.3 | 6.1 | 0.00 | 0.08 | 0.08 | 77 | 1008.8 |
| 20260905070306 | 75 | 312 | 1.7 | 4.3 | 0.01 | 0.08 | 0.08 | 78 | 1008.9 |
| 20260905065805 | 75 | 295 | 0.9 | 2.6 | 0.06 | 0.08 | 0.08 | 81 | 1009.0 |
| 20260905065306 | 75 | 293 | 0.9 | 4.3 | 0.08 | 0.08 | 0.08 | 81 | 1009.1 |
| 20260905064806 | 74 | 304 | 2.6 | 4.3 | 0.08 | 0.08 | 0.08 | 81 | 1009.1 |
| 20260905062306 | 73 | 31 | 0.9 | 1.7 | 0.08 | 0.08 | 0.08 | 80 | 1009.1 |
| 20260905061305 | 73 | 31 | 0.0 | 0.9 | 0.08 | 0.08 | 0.08 | 77 | 1009.1 |
| 20260905060805 | 74 | 31 | 0.9 | 4.3 | 0.08 | 0.08 | 0.08 | 75 | 1009.2 |
| 20260905060305 | 75 | 29 | 8.7 | 13.9 | 0.07 | 0.07 | 0.07 | 73 | 1009.4 |
| 20260905054305 | 79 | 10 | 7.0 | 10.4 | 0.00 | 0.01 | 0.00 | 69 | 1009.0 |
| 20260905053805 | 79 | 28 | 5.2 | 7.8 | 0.00 | 0.01 | 0.00 | 71 | 1009.0 |
| 20260905053305 | 79 | 17 | 5.2 | 7.8 | 0.00 | 0.01 | 0.00 | 71 | 1009.0 |
| 20260905052806 | 79 | 12 | 5.2 | 8.7 | 0.00 | 0.01 | 0.00 | 71 | 1009.1 |
| 20260905051306 | 79 | 34 | 1.7 | 4.3 | 0.00 | 0.01 | 0.00 | 72 | 1009.2 |
| 20260905050805 | 79 | 51 | 2.6 | 5.2 | 0.00 | 0.01 | 0.00 | 74 | 1009.2 |
| 20260905045805 | 79 | 11 | 3.5 | 5.2 | 0.00 | 0.01 | 0.00 | 75 | 1009.4 |
| 20260905044305 | 80 | 23 | 4.3 | 7.8 | 0.00 | 0.01 | 0.00 | 76 | 1009.5 |
| 20260905043805 | 80 | 12 | 5.2 | 7.8 | 0.00 | 0.01 | 0.00 | 76 | 1009.6 |
| 20260905043306 | 80 | 23 | 5.2 | 7.8 | 0.00 | 0.01 | 0.00 | 76 | 1009.6 |
| 20260905041306 | 80 | 19 | 5.2 | 7.8 | 0.00 | 0.01 | 0.00 | 76 | 1009.6 |
| 20260905035307 | 80 | 353 | 6.1 | 7.8 | 0.00 | 0.01 | 0.01 | 74 | 1009.7 |
| 20260905034805 | 80 | 348 | 5.2 | 8.7 | 0.00 | 0.01 | 0.01 | 75 | 1009.7 |
| 20260905033805 | 81 | 303 | 2.6 | 5.2 | 0.00 | 0.01 | 0.01 | 76 | 1009.7 |
| 20260905033305 | 81 | 318 | 2.6 | 5.2 | 0.00 | 0.01 | 0.01 | 76 | 1009.8 |
| 20260905032805 | 81 | 313 | 2.6 | 5.2 | 0.00 | 0.01 | 0.01 | 76 | 1009.7 |
| 20260905032306 | 81 | 312 | 3.5 | 5.2 | 0.00 | 0.01 | 0.01 | 76 | 1009.7 |
| 20260905031805 | 81 | 334 | 2.6 | 4.3 | 0.00 | 0.01 | 0.01 | 77 | 1009.6 |
| 20260905030305 | 81 | 344 | 4.3 | 6.1 | 0.00 | 0.01 | 0.01 | 75 | 1009.5 |
| 20260905024805 | 81 | 353 | 5.2 | 10.4 | 0.00 | 0.01 | 0.01 | 75 | 1009.5 |
| 20260905023305 | 81 | 347 | 5.2 | 8.7 | 0.00 | 0.01 | 0.01 | 77 | 1009.5 |
| 20260905022306 | 81 | 329 | 2.6 | 4.3 | 0.00 | 0.01 | 0.01 | 78 | 1009.5 |
| 20260905021305 | 81 | 306 | 2.6 | 4.3 | 0.00 | 0.01 | 0.01 | 79 | 1009.6 |
| 20260905020805 | 81 | 300 | 2.6 | 2.6 | 0.00 | 0.01 | 0.01 | 79 | 1009.6 |
| 20260905020305 | 81 | 297 | 0.9 | 2.6 | 0.00 | 0.01 | 0.01 | 79 | 1009.7 |
| 20260905015805 | 81 | 297 | 0.0 | 1.7 | 0.00 | 0.01 | 0.01 | 79 | 1009.6 |
| 20260905015306 | 81 | 297 | 0.0 | 1.7 | 0.00 | 0.01 | 0.01 | 79 | 1009.7 |
| 20260905014805 | 81 | 297 | 0.9 | 2.6 | 0.00 | 0.01 | 0.01 | 79 | 1009.7 |
| 20260905014306 | 81 | 297 | 0.9 | 2.6 | 0.00 | 0.01 | 0.01 | 80 | 1009.7 |
| 20260905012306 | 81 | 272 | 1.7 | 2.6 | 0.00 | 0.01 | 0.01 | 80 | 1009.8 |
| 20260905010305 | 81 | 269 | 1.7 | 2.6 | 0.00 | 0.01 | 0.01 | 79 | 1009.6 |
| 20260905005805 | 82 | 272 | 0.9 | 2.6 | 0.00 | 0.01 | 0.01 | 79 | 1009.6 |
| 20260905003805 | 82 | 336 | 2.6 | 4.3 | 0.00 | 0.01 | 0.01 | 76 | 1009.3 |
| 20260905003304 | 82 | 333 | 2.6 | 5.2 | 0.00 | 0.01 | 0.01 | 76 | 1009.3 |
| 20260905002805 | 83 | 351 | 4.3 | 5.2 | 0.00 | 0.01 | 0.01 | 76 | 1009.1 |
| 20260905002306 | 83 | 350 | 4.3 | 5.2 | 0.00 | 0.01 | 0.01 | 76 | 1009.0 |
| 20260905001805 | 83 | 348 | 4.3 | 5.2 | 0.00 | 0.01 | 0.01 | 76 | 1009.0 |
| 20260905001305 | 83 | 348 | 4.3 | 5.2 | 0.00 | 0.01 | 0.01 | 76 | 1008.9 |
| 20260905000804 | 83 | 347 | 4.3 | 5.2 | 0.00 | 0.01 | 0.01 | 76 | 1009.1 |
| 20260905000305 | 83 | 346 | 4.3 | 6.1 | 0.00 | 0.01 | 0.01 | 75 | 1009.1 |
| 20260904235804 | 83 | 348 | 5.2 | 5.2 | 0.00 | 0.01 | 0.01 | 75 | 1009.1 |
| 20260904234804 | 83 | 343 | 4.3 | 5.2 | 0.00 | 0.01 | 0.01 | 76 | 1009.2 |
| 20260904234305 | 83 | 349 | 4.3 | 5.2 | 0.00 | 0.01 | 0.01 | 76 | 1009.1 |
| 20260904232306 | 84 | 349 | 4.3 | 6.1 | 0.00 | 0.01 | 0.01 | 74 | 1009.4 |
| 20260904230805 | 84 | 344 | 4.3 | 5.2 | 0.00 | 0.01 | 0.01 | 75 | 1009.5 |
| 20260904225804 | 84 | 323 | 1.7 | 2.6 | 0.00 | 0.01 | 0.01 | 75 | 1009.4 |
| 20260904225306 | 84 | 321 | 0.9 | 2.6 | 0.00 | 0.01 | 0.01 | 74 | 1009.3 |
| 20260904223304 | 85 | 346 | 2.6 | 4.3 | 0.00 | 0.01 | 0.01 | 73 | 1009.3 |
| 20260904222805 | 85 | 346 | 2.6 | 4.3 | 0.00 | 0.01 | 0.01 | 74 | 1009.3 |
| 20260904220805 | 85 | 227 | 1.7 | 2.6 | 0.00 | 0.01 | 0.01 | 72 | 1009.3 |
| 20260904220305 | 85 | 224 | 0.0 | 0.9 | 0.00 | 0.01 | 0.01 | 73 | 1009.3 |
| 20260904214805 | 85 | 212 | 0.9 | 4.3 | 0.00 | 0.01 | 0.01 | 77 | 1009.4 |
| 20260904214305 | 84 | 225 | 1.7 | 4.3 | 0.00 | 0.01 | 0.01 | 78 | 1009.5 |
| 20260904213804 | 84 | 228 | 2.6 | 6.1 | 0.00 | 0.01 | 0.01 | 79 | 1009.5 |
| 20260904212805 | 83 | 212 | 4.3 | 6.1 | 0.00 | 0.01 | 0.01 | 80 | 1009.4 |
| 20260904212306 | 83 | 189 | 1.7 | 7.8 | 0.00 | 0.01 | 0.01 | 80 | 1009.3 |
| 20260904210805 | 84 | 191 | 3.5 | 5.2 | 0.00 | 0.01 | 0.01 | 78 | 1009.3 |
| 20260904205805 | 83 | 196 | 2.6 | 6.1 | 0.00 | 0.01 | 0.01 | 78 | 1009.3 |
| 20260904205306 | 84 | 163 | 0.9 | 4.3 | 0.00 | 0.01 | 0.01 | 78 | 1009.5 |
| 20260904204805 | 84 | 205 | 1.7 | 6.1 | 0.00 | 0.01 | 0.01 | 77 | 1009.5 |
| 20260904201306 | 84 | 192 | 3.5 | 8.7 | 0.00 | 0.01 | 0.01 | 76 | 1009.8 |
| 20260904195804 | 83 | 210 | 2.6 | 7.8 | 0.00 | 0.01 | 0.01 | 79 | 1009.9 |
| 20260904194804 | 81 | 206 | 6.1 | 8.7 | 0.00 | 0.01 | 0.01 | 79 | 1010.2 |
| 20260904193805 | 82 | 201 | 7.0 | 12.2 | 0.00 | 0.01 | 0.01 | 79 | 1010.3 |
| 20260904193304 | 82 | 197 | 4.3 | 8.7 | 0.00 | 0.01 | 0.01 | 80 | 1010.3 |
| 20260904192804 | 81 | 215 | 6.1 | 8.7 | 0.00 | 0.01 | 0.01 | 80 | 1010.4 |
| 20260904192306 | 81 | 201 | 6.1 | 8.7 | 0.00 | 0.01 | 0.01 | 80 | 1010.4 |
| 20260904191305 | 82 | 201 | 4.3 | 7.8 | 0.00 | 0.01 | 0.01 | 79 | 1010.5 |
| 20260904190805 | 82 | 193 | 4.3 | 8.7 | 0.00 | 0.01 | 0.01 | 78 | 1010.4 |
| 20260904184805 | 83 | 183 | 6.1 | 10.4 | 0.00 | 0.01 | 0.01 | 76 | 1010.5 |
| 20260904184304 | 83 | 192 | 5.2 | 8.7 | 0.00 | 0.01 | 0.01 | 76 | 1010.6 |
| 20260904183805 | 83 | 202 | 2.6 | 6.1 | 0.00 | 0.01 | 0.01 | 78 | 1010.5 |
| 20260904183305 | 82 | 185 | 4.3 | 7.8 | 0.00 | 0.01 | 0.01 | 79 | 1010.6 |
| 20260904181805 | 83 | 184 | 2.6 | 5.2 | 0.00 | 0.01 | 0.01 | 76 | 1010.6 |
| 20260904181305 | 84 | 192 | 2.6 | 6.1 | 0.00 | 0.01 | 0.01 | 76 | 1010.6 |
| 20260904180804 | 83 | 148 | 2.6 | 6.1 | 0.00 | 0.01 | 0.01 | 77 | 1010.5 |
| 20260904180305 | 83 | 178 | 3.5 | 6.1 | 0.00 | 0.01 | 0.01 | 76 | 1010.6 |
| 20260904175306 | 85 | 166 | 2.6 | 5.2 | 0.00 | 0.01 | 0.01 | 73 | 1010.6 |
| 20260904174805 | 85 | 141 | 2.6 | 4.3 | 0.00 | 0.01 | 0.01 | 71 | 1010.6 |
| 20260904174305 | 84 | 107 | 3.5 | 5.2 | 0.00 | 0.01 | 0.01 | 71 | 1010.6 |
| 20260904173805 | 84 | 116 | 2.6 | 5.2 | 0.00 | 0.01 | 0.01 | 71 | 1010.6 |
| 20260904172305 | 85 | 157 | 2.6 | 5.2 | 0.00 | 0.01 | 0.01 | 73 | 1010.6 |
| 20260904171805 | 85 | 119 | 1.7 | 5.2 | 0.00 | 0.01 | 0.01 | 73 | 1010.6 |
| 20260904171304 | 85 | 100 | 3.5 | 6.1 | 0.00 | 0.01 | 0.01 | 72 | 1010.6 |
| 20260904165805 | 86 | 89 | 2.6 | 5.2 | 0.00 | 0.01 | 0.01 | 72 | 1010.4 |
| 20260904165305 | 86 | 85 | 3.5 | 6.1 | 0.00 | 0.01 | 0.01 | 70 | 1010.5 |
| 20260904164305 | 87 | 71 | 4.3 | 7.8 | 0.00 | 0.01 | 0.01 | 64 | 1010.6 |
| 20260904163804 | 87 | 74 | 4.3 | 7.8 | 0.00 | 0.01 | 0.01 | 64 | 1010.5 |
| 20260904162806 | 88 | 49 | 5.2 | 10.4 | 0.00 | 0.01 | 0.01 | 62 | 1010.6 |
| 20260904161804 | 87 | 16 | 5.2 | 13.0 | 0.00 | 0.01 | 0.01 | 61 | 1010.7 |
| 20260904155804 | 86 | 7 | 7.8 | 10.4 | 0.00 | 0.01 | 0.01 | 63 | 1010.8 |
| 20260904155306 | 86 | 20 | 7.8 | 13.0 | 0.00 | 0.01 | 0.01 | 64 | 1010.8 |
| 20260904153305 | 85 | 16 | 10.4 | 14.8 | 0.00 | 0.01 | 0.01 | 68 | 1010.9 |